Time;durP1;ratioP1;P1;durP2;ratioP2;P2;SDS_P1;SDS_P2;PMS_P1;PMS_P2;Temp;Humidity;BMP_temperature;BMP_pressure;BME280_temperature;BME280_humidity;BME280_pressure;Samples;Min_cycle;Max_cycle;Signal;HPM_P1;HPM_P2
2023/01/05 00:01:32;;;;;;;0.20;0.20;;;;;;;14.79;100.00;96745.47;5065180;28;20095;-41
2023/01/05 00:04:01;;;;;;;0.60;0.40;;;;;;;14.85;100.00;96730.72;5055363;28;20080;-46
2023/01/05 00:06:29;;;;;;;0.50;0.45;;;;;;;15.02;100.00;96756.28;5055108;28;20087;-48
2023/01/05 00:08:58;;;;;;;1.38;0.50;;;;;;;14.89;100.00;96756.78;5056944;28;20703;-45
2023/01/05 00:22:37;;;;;;;0.77;0.35;;;;;;;14.81;100.00;96732.88;5054937;28;20088;-40
2023/01/05 00:25:08;;;;;;;0.57;0.55;;;;;;;14.81;100.00;96726.75;5061714;28;20485;-41
2023/01/05 00:27:42;;;;;;;0.80;0.40;;;;;;;14.38;100.00;96736.56;5058299;28;20524;-46
2023/01/05 00:30:13;;;;;;;0.35;0.30;;;;;;;14.46;100.00;96729.47;5063446;28;20539;-41
2023/01/05 00:32:42;;;;;;;0.65;0.40;;;;;;;14.69;100.00;96736.81;5060393;28;20068;-41
2023/01/05 00:35:11;;;;;;;0.32;0.30;;;;;;;14.65;100.00;96738.97;5052574;28;20083;-44
2023/01/05 00:37:40;;;;;;;0.40;0.30;;;;;;;14.69;100.00;96729.72;5056059;28;20110;-44
2023/01/05 00:40:10;;;;;;;0.45;0.40;;;;;;;14.57;100.00;96719.56;5064193;28;20068;-45
2023/01/05 00:42:40;;;;;;;1.13;0.68;;;;;;;14.34;100.00;96717.47;5059345;28;20072;-47
2023/01/05 00:45:11;;;;;;;0.50;0.40;;;;;;;14.51;100.00;96713.06;5063638;28;20076;-44
2023/01/05 00:47:40;;;;;;;0.30;0.30;;;;;;;14.63;100.00;96724.22;5060611;28;20084;-49
2023/01/05 00:50:10;;;;;;;0.35;0.30;;;;;;;14.45;100.00;96713.69;5056085;28;20582;-41
2023/01/05 00:52:38;;;;;;;3.23;0.30;;;;;;;14.39;100.00;96709.88;5061271;28;20087;-39
2023/01/05 00:55:07;;;;;;;0.20;0.20;;;;;;;14.55;100.00;96708.28;5062974;28;20088;-40
2023/01/05 00:57:36;;;;;;;0.30;0.30;;;;;;;14.11;100.00;96713.75;5064338;28;20064;-43
2023/01/05 01:00:10;;;;;;;0.30;0.30;;;;;;;14.66;100.00;96711.47;5062068;28;20824;-41
2023/01/05 01:02:39;;;;;;;0.80;0.32;;;;;;;14.37;100.00;96711.84;5058879;28;20076;-42
2023/01/05 01:05:08;;;;;;;0.50;0.40;;;;;;;14.63;100.00;96703.00;5046976;28;20088;-40
2023/01/05 01:07:36;;;;;;;0.40;0.40;;;;;;;14.76;100.00;96711.28;5050924;28;20084;-40
2023/01/05 01:10:06;;;;;;;0.68;0.40;;;;;;;14.73;100.00;96703.69;5058792;28;20076;-44
2023/01/05 01:12:35;;;;;;;0.40;0.40;;;;;;;14.83;100.00;96693.72;5053057;28;20080;-44
2023/01/05 01:15:03;;;;;;;0.57;0.40;;;;;;;14.81;100.00;96708.16;5053090;28;20072;-42
2023/01/05 01:17:33;;;;;;;0.32;0.32;;;;;;;14.56;100.00;96705.47;5056937;28;20096;-42
2023/01/05 01:20:01;;;;;;;0.30;0.30;;;;;;;15.03;100.00;96696.84;5048782;28;20072;-44
2023/01/05 01:22:30;;;;;;;0.20;0.20;;;;;;;15.00;100.00;96699.84;5057637;28;20103;-43
2023/01/05 01:24:58;;;;;;;0.47;0.40;;;;;;;15.23;100.00;96704.50;5051774;28;20464;-40
2023/01/05 01:27:26;;;;;;;0.40;0.30;;;;;;;15.20;100.00;96692.38;5063146;28;20084;-49
2023/01/05 01:29:54;;;;;;;0.63;0.40;;;;;;;14.66;100.00;96684.91;5062434;28;20084;-47
2023/01/05 01:32:23;;;;;;;0.30;0.30;;;;;;;14.77;100.00;96693.56;5053641;28;20351;-49
2023/01/05 01:34:54;;;;;;;0.35;0.35;;;;;;;14.62;100.00;96696.00;5054544;28;20096;-41
2023/01/05 01:37:22;;;;;;;0.32;0.30;;;;;;;14.76;100.00;96692.69;5066779;28;20095;-46
2023/01/05 01:39:50;;;;;;;0.70;0.50;;;;;;;14.72;100.00;96708.13;5060592;28;20091;-42
2023/01/05 01:42:21;;;;;;;0.43;0.30;;;;;;;14.64;100.00;96705.47;5062915;28;20075;-40
2023/01/05 01:44:58;;;;;;;0.50;0.30;;;;;;;14.90;100.00;96692.06;5063702;28;20095;-49
2023/01/05 01:47:34;;;;;;;0.30;0.30;;;;;;;14.58;100.00;96697.34;5063675;28;20083;-41
2023/01/05 01:50:08;;;;;;;0.40;0.30;;;;;;;14.76;100.00;96686.56;5060055;28;20089;-44
2023/01/05 01:52:37;;;;;;;0.98;0.38;;;;;;;15.06;100.00;96675.28;5063594;28;20075;-40
2023/01/05 01:55:06;;;;;;;0.30;0.30;;;;;;;14.87;100.00;96659.72;5059911;28;20083;-39
2023/01/05 01:57:35;;;;;;;0.30;0.30;;;;;;;15.16;100.00;96675.09;5064596;28;20081;-46
2023/01/05 02:00:06;;;;;;;0.63;0.30;;;;;;;14.79;100.00;96676.44;5058388;28;20654;-43
2023/01/05 02:02:35;;;;;;;0.20;0.20;;;;;;;14.75;100.00;96669.81;5062771;28;20092;-41
2023/01/05 02:05:08;;;;;;;0.45;0.25;;;;;;;14.52;100.00;96627.19;5064739;28;20471;-42
2023/01/05 02:07:42;;;;;;;0.20;0.20;;;;;;;15.10;100.00;96649.22;5062026;28;20083;-42
2023/01/05 02:10:11;;;;;;;0.68;0.40;;;;;;;15.09;100.00;96645.72;5062906;28;20068;-47
2023/01/05 02:12:49;;;;;;;0.20;0.20;;;;;;;14.87;100.00;96630.50;5057062;28;20084;-45
2023/01/05 02:15:24;;;;;;;0.63;0.40;;;;;;;15.07;100.00;96615.88;5054500;28;20519;-41
2023/01/05 02:18:02;;;;;;;0.20;0.20;;;;;;;14.77;100.00;96625.34;5064281;28;20081;-44
2023/01/05 02:20:59;;;;;;;0.85;0.30;;;;;;;15.19;100.00;96624.31;5060498;28;20080;-40
2023/01/05 02:24:05;;;;;;;0.50;0.22;;;;;;;14.85;100.00;96627.16;5057070;28;20083;-47
2023/01/05 02:27:15;;;;;;;1.05;0.50;;;;;;;15.03;100.00;96617.19;5056795;28;20096;-43
2023/01/05 02:30:09;;;;;;;0.20;0.20;;;;;;;15.24;100.00;96618.47;5062623;28;20088;-41
2023/01/05 02:32:44;;;;;;;0.30;0.30;;;;;;;15.51;100.00;96623.38;5052098;28;20091;-38
2023/01/05 02:35:20;;;;;;;0.17;0.17;;;;;;;15.02;100.00;96625.31;5057630;28;20084;-48
2023/01/05 02:37:53;;;;;;;0.20;0.20;;;;;;;15.52;100.00;96608.25;5054211;28;21040;-42
2023/01/05 02:40:25;;;;;;;0.20;0.20;;;;;;;15.00;100.00;96595.44;5058032;28;20080;-41
2023/01/05 02:42:55;;;;;;;0.30;0.30;;;;;;;15.30;100.00;96610.66;5062054;28;20521;-40
2023/01/05 02:45:23;;;;;;;0.30;0.30;;;;;;;15.57;100.00;96595.28;5056738;28;20092;-44
2023/01/05 02:47:53;;;;;;;0.30;0.20;;;;;;;15.26;100.00;96590.75;5056259;28;20584;-42
2023/01/05 02:50:24;;;;;;;1.60;0.30;;;;;;;15.34;100.00;96598.69;5062513;28;20536;-42
2023/01/05 02:52:57;;;;;;;0.68;0.20;;;;;;;15.15;100.00;96593.78;5061521;28;20072;-45
2023/01/05 02:55:29;;;;;;;0.80;0.20;;;;;;;15.03;100.00;96593.28;5064705;28;20095;-44
2023/01/05 02:58:01;;;;;;;0.63;0.30;;;;;;;15.08;100.00;96582.16;5061626;28;20081;-46
2023/01/05 03:00:33;;;;;;;0.20;0.20;;;;;;;14.86;100.00;96583.69;5058652;28;20566;-47
2023/01/05 03:03:07;;;;;;;0.45;0.20;;;;;;;14.85;100.00;96600.63;5063134;28;20076;-47
2023/01/05 03:05:39;;;;;;;0.55;0.40;;;;;;;15.08;100.00;96590.97;5059491;28;20088;-42
2023/01/05 03:08:09;;;;;;;0.30;0.30;;;;;;;14.78;100.00;96591.66;5063131;28;20095;-48
2023/01/05 03:13:42;;;;;;;1.55;0.40;;;;;;;15.24;100.00;96582.09;5064517;28;20091;-39
2023/01/05 03:16:15;;;;;;;0.50;0.47;;;;;;;14.86;100.00;96589.81;5055957;28;20084;-43
2023/01/05 03:35:32;;;;;;;0.20;0.20;;;;;;;14.88;100.00;96574.56;5058334;28;20098;-41
2023/01/05 03:38:08;;;;;;;0.20;0.20;;;;;;;14.84;100.00;96581.22;5056182;28;20081;-48
2023/01/05 03:40:44;;;;;;;1.10;0.22;;;;;;;15.24;100.00;96579.44;5065408;28;20084;-42
2023/01/05 03:43:13;;;;;;;0.30;0.30;;;;;;;15.00;100.00;96576.84;5056093;28;20076;-44
2023/01/05 03:45:43;;;;;;;0.30;0.20;;;;;;;15.16;100.00;96593.59;5058897;28;20072;-46
2023/01/05 03:48:11;;;;;;;0.52;0.30;;;;;;;15.12;100.00;96570.19;5058330;28;20094;-40
2023/01/05 03:50:41;;;;;;;0.20;0.20;;;;;;;15.00;100.00;96572.38;5057558;28;20377;-42
2023/01/05 03:53:09;;;;;;;0.47;0.38;;;;;;;14.76;100.00;96581.19;5060564;28;20131;-47
2023/01/05 03:55:38;;;;;;;1.25;0.28;;;;;;;14.82;100.00;96577.06;5061241;28;20052;-40
2023/01/05 03:58:06;;;;;;;0.50;0.30;;;;;;;15.14;100.00;96584.13;5063266;28;20067;-38
2023/01/05 04:00:35;;;;;;;0.40;0.40;;;;;;;14.64;100.00;96558.66;5061802;28;20485;-40
2023/01/05 04:03:03;;;;;;;0.35;0.35;;;;;;;14.99;100.00;96554.78;5053252;28;20528;-41
2023/01/05 04:05:32;;;;;;;0.50;0.40;;;;;;;14.74;100.00;96554.00;5057842;28;20076;-45
2023/01/05 04:08:02;;;;;;;0.40;0.30;;;;;;;14.89;100.00;96560.28;5058225;28;20083;-41
2023/01/05 04:10:30;;;;;;;0.32;0.30;;;;;;;14.97;100.00;96575.38;5056365;28;20063;-42
2023/01/05 04:12:59;;;;;;;0.30;0.20;;;;;;;14.85;100.00;96568.75;5059944;28;20168;-39
2023/01/05 04:15:27;;;;;;;2.15;0.30;;;;;;;14.83;100.00;96558.31;5058680;28;20094;-42
2023/01/05 04:17:55;;;;;;;1.25;0.32;;;;;;;14.71;100.00;96580.88;5060133;28;20090;-41
2023/01/05 04:20:24;;;;;;;0.20;0.20;;;;;;;15.03;100.00;96582.66;5048616;28;20088;-40
2023/01/05 04:22:52;;;;;;;0.30;0.30;;;;;;;14.98;100.00;96586.84;5057540;28;20087;-45
2023/01/05 04:25:21;;;;;;;0.20;0.20;;;;;;;14.90;100.00;96579.69;5053862;28;20096;-41
2023/01/05 04:27:50;;;;;;;0.37;0.37;;;;;;;15.02;100.00;96581.00;5060566;28;20056;-42
2023/01/05 04:30:19;;;;;;;0.40;0.30;;;;;;;14.91;100.00;96560.94;5054384;28;20399;-45
2023/01/05 04:32:47;;;;;;;0.57;0.47;;;;;;;14.68;100.00;96566.13;5054427;28;20127;-41
2023/01/05 04:35:16;;;;;;;0.40;0.30;;;;;;;14.79;100.00;96556.97;5052397;28;20088;-41
2023/01/05 04:37:45;;;;;;;0.55;0.40;;;;;;;14.62;100.00;96547.38;5051987;28;20091;-45
2023/01/05 04:40:13;;;;;;;0.75;0.40;;;;;;;14.79;100.00;96545.53;5051072;28;20084;-42
2023/01/05 04:42:42;;;;;;;0.73;0.60;;;;;;;14.60;100.00;96522.84;5060455;28;20544;-46
2023/01/05 04:45:12;;;;;;;0.40;0.25;;;;;;;14.51;100.00;96535.28;5061152;28;20081;-41
2023/01/05 04:47:40;;;;;;;0.57;0.35;;;;;;;14.41;100.00;96511.53;5054025;28;20118;-39
2023/01/05 04:50:09;;;;;;;0.43;0.30;;;;;;;14.99;100.00;96525.56;5055341;28;20091;-43
2023/01/05 04:52:38;;;;;;;0.30;0.30;;;;;;;14.94;100.00;96502.19;5054559;28;20102;-44
2023/01/05 04:55:07;;;;;;;0.30;0.30;;;;;;;14.64;100.00;96538.25;5052967;28;20080;-46
2023/01/05 04:57:36;;;;;;;1.02;0.40;;;;;;;14.89;100.00;96532.91;5058732;28;20084;-40
2023/01/05 05:00:07;;;;;;;3.92;0.40;;;;;;;14.94;100.00;96533.22;5059783;28;20076;-49
2023/01/05 05:02:36;;;;;;;0.47;0.30;;;;;;;14.88;100.00;96533.91;5065483;28;20076;-39
2023/01/05 05:05:06;;;;;;;0.65;0.40;;;;;;;14.96;100.00;96533.88;5058229;28;20084;-44
2023/01/05 05:07:34;;;;;;;0.52;0.30;;;;;;;14.86;100.00;96526.09;5057625;28;20701;-48
2023/01/05 05:10:04;;;;;;;0.30;0.30;;;;;;;15.27;100.00;96541.09;5064597;28;20045;-45
2023/01/05 05:12:32;;;;;;;0.65;0.30;;;;;;;15.04;100.00;96538.34;5063609;28;20167;-41
2023/01/05 05:15:01;;;;;;;0.30;0.30;;;;;;;15.14;100.00;96528.34;5057651;28;20053;-46
2023/01/05 05:17:31;;;;;;;0.30;0.30;;;;;;;14.94;100.00;96527.94;5052172;28;20052;-48
2023/01/05 05:20:00;;;;;;;1.30;0.32;;;;;;;14.94;100.00;96527.94;5057842;28;20091;-44
2023/01/05 05:22:28;;;;;;;0.30;0.30;;;;;;;15.26;100.00;96547.41;5050227;28;20060;-43
2023/01/05 05:24:57;;;;;;;0.50;0.40;;;;;;;15.06;100.00;96541.66;5055931;28;20110;-43
2023/01/05 05:27:26;;;;;;;0.20;0.20;;;;;;;15.10;100.00;96545.63;5051907;28;20544;-43
2023/01/05 05:29:54;;;;;;;0.65;0.38;;;;;;;14.65;100.00;96534.59;5061957;28;20111;-44
2023/01/05 05:32:23;;;;;;;0.20;0.20;;;;;;;15.19;100.00;96550.75;5059808;28;20084;-51
2023/01/05 05:34:54;;;;;;;1.67;0.30;;;;;;;14.86;100.00;96555.31;5062492;28;20044;-46
2023/01/05 05:37:22;;;;;;;0.30;0.30;;;;;;;14.77;100.00;96550.19;5051018;28;20557;-42
2023/01/05 05:39:50;;;;;;;0.20;0.20;;;;;;;14.80;100.00;96556.00;5061980;28;20132;-42
2023/01/05 05:42:19;;;;;;;0.20;0.20;;;;;;;14.77;100.00;96563.47;5052788;28;20041;-46
2023/01/05 05:44:47;;;;;;;0.40;0.28;;;;;;;14.95;100.00;96574.72;5050595;28;20045;-44
2023/01/05 05:47:16;;;;;;;0.35;0.30;;;;;;;15.05;100.00;96563.91;5058291;28;20087;-44
2023/01/05 05:49:45;;;;;;;0.47;0.30;;;;;;;15.32;100.00;96565.31;5064066;28;20520;-42
2023/01/05 05:52:16;;;;;;;0.70;0.30;;;;;;;14.83;100.00;96558.31;5064745;28;20696;-41
2023/01/05 05:54:45;;;;;;;0.30;0.30;;;;;;;15.06;100.00;96566.38;5058570;28;20084;-51
2023/01/05 05:57:13;;;;;;;0.30;0.22;;;;;;;15.05;100.00;96551.44;5054238;28;20069;-46
2023/01/05 05:59:41;;;;;;;0.22;0.20;;;;;;;15.13;100.00;96587.78;5063601;28;20079;-41
2023/01/05 06:02:09;;;;;;;0.30;0.30;;;;;;;14.96;100.00;96569.22;5059587;28;20079;-45
2023/01/05 06:04:38;;;;;;;0.47;0.32;;;;;;;15.31;100.00;96583.09;5051631;28;20076;-41
2023/01/05 06:07:06;;;;;;;0.32;0.30;;;;;;;15.00;100.00;96585.66;5060749;28;20091;-41
2023/01/05 06:09:36;;;;;;;0.30;0.30;;;;;;;14.95;100.00;96580.03;5057573;28;20076;-44
2023/01/05 06:12:05;;;;;;;0.40;0.40;;;;;;;14.95;100.00;96574.72;5059441;28;20085;-43
2023/01/05 06:14:33;;;;;;;0.30;0.30;;;;;;;15.09;100.00;96583.81;5064090;28;20083;-43
2023/01/05 06:17:02;;;;;;;0.60;0.40;;;;;;;14.87;100.00;96582.72;5055673;28;20079;-41
2023/01/05 06:19:30;;;;;;;0.47;0.30;;;;;;;14.85;100.00;96568.75;5056281;28;20088;-41
2023/01/05 06:21:58;;;;;;;0.10;0.10;;;;;;;14.85;100.00;96592.66;5054138;28;20471;-40
2023/01/05 06:24:27;;;;;;;0.30;0.30;;;;;;;14.87;100.00;96591.50;5059366;28;20076;-44
2023/01/05 06:26:57;;;;;;;2.75;0.30;;;;;;;15.04;100.00;96579.03;5053322;28;20076;-43
2023/01/05 06:29:26;;;;;;;0.43;0.30;;;;;;;15.11;100.00;96584.47;5065829;28;20091;-46
2023/01/05 06:31:54;;;;;;;0.50;0.30;;;;;;;15.19;100.00;96595.09;5056757;28;20610;-48
2023/01/05 06:34:23;;;;;;;0.55;0.28;;;;;;;14.81;100.00;96578.88;5054699;28;20548;-42
2023/01/05 06:36:52;;;;;;;0.17;0.17;;;;;;;15.09;100.00;96591.78;5051318;28;20072;-43
2023/01/05 06:39:26;;;;;;;1.00;0.55;;;;;;;14.94;100.00;96591.66;5060783;28;20098;-43
2023/01/05 06:41:56;;;;;;;0.40;0.40;;;;;;;15.23;100.00;96587.59;5057608;28;20080;-45
2023/01/05 06:44:24;;;;;;;0.20;0.20;;;;;;;14.96;100.00;96610.88;5057690;28;20303;-43
2023/01/05 06:46:53;;;;;;;0.20;0.20;;;;;;;14.84;100.00;96583.88;5055060;28;20424;-52
2023/01/05 06:49:21;;;;;;;1.05;0.30;;;;;;;14.85;100.00;96595.31;5051603;28;20076;-47
2023/01/05 06:51:49;;;;;;;0.30;0.20;;;;;;;15.02;100.00;96626.16;5059556;28;20167;-44
2023/01/05 06:54:17;;;;;;;0.65;0.43;;;;;;;14.92;100.00;96617.53;5060284;28;20076;-44
2023/01/05 06:56:46;;;;;;;0.43;0.30;;;;;;;14.57;100.00;96618.72;5061450;28;20094;-41
2023/01/05 06:59:15;;;;;;;0.30;0.20;;;;;;;15.00;100.00;96612.19;5062233;28;20091;-43
2023/01/05 07:01:44;;;;;;;0.68;0.50;;;;;;;15.00;100.00;96617.50;5056484;28;20096;-44
2023/01/05 07:04:12;;;;;;;0.55;0.40;;;;;;;14.65;100.00;96602.78;5052704;28;20081;-44
2023/01/05 07:06:40;;;;;;;0.20;0.20;;;;;;;14.79;100.00;96610.06;5050760;28;20084;-42
2023/01/05 07:09:09;;;;;;;0.40;0.20;;;;;;;15.02;100.00;96617.38;5056810;28;20088;-42
2023/01/05 07:11:37;;;;;;;0.30;0.30;;;;;;;15.29;100.00;96616.16;5050652;28;20080;-43
2023/01/05 07:14:06;;;;;;;0.40;0.32;;;;;;;15.06;100.00;96624.00;5058153;28;20080;-48
2023/01/05 07:16:36;;;;;;;0.40;0.40;;;;;;;14.78;100.00;96619.03;5057193;28;20068;-46
2023/01/05 07:19:04;;;;;;;0.30;0.30;;;;;;;15.01;100.00;96629.00;5060057;28;20068;-45
2023/01/05 07:21:32;;;;;;;0.43;0.30;;;;;;;15.17;100.00;96637.75;5061612;28;20453;-47
2023/01/05 07:24:01;;;;;;;0.63;0.63;;;;;;;15.04;100.00;96636.63;5049581;28;20068;-44
2023/01/05 07:26:29;;;;;;;0.75;0.30;;;;;;;15.34;100.00;96648.34;5050837;28;20076;-44
2023/01/05 07:28:58;;;;;;;0.55;0.50;;;;;;;14.67;100.00;96643.28;5049999;28;20098;-45
2023/01/05 07:31:26;;;;;;;0.30;0.30;;;;;;;14.85;100.00;96648.41;5052453;28;20438;-40
2023/01/05 07:33:56;;;;;;;3.05;0.50;;;;;;;14.98;100.00;96647.91;5056007;28;20106;-42
2023/01/05 07:36:24;;;;;;;0.63;0.40;;;;;;;14.93;100.00;96657.22;5055915;28;20061;-42
2023/01/05 07:38:53;;;;;;;0.32;0.30;;;;;;;14.68;100.00;96669.63;5060673;28;20072;-45
2023/01/05 07:41:25;;;;;;;0.50;0.50;;;;;;;14.78;100.00;96672.13;5057890;28;20464;-42
2023/01/05 07:43:54;;;;;;;0.35;0.30;;;;;;;14.92;100.00;96668.81;5052679;28;20083;-43
2023/01/05 07:46:22;;;;;;;3.00;0.50;;;;;;;14.74;100.00;96662.03;5049614;28;20098;-43
2023/01/05 07:48:50;;;;;;;0.82;0.50;;;;;;;14.52;100.00;96660.81;5050979;28;20073;-41
2023/01/05 07:51:21;;;;;;;0.30;0.30;;;;;;;14.83;100.00;96659.22;5054702;28;20080;-41
2023/01/05 07:53:49;;;;;;;0.30;0.30;;;;;;;14.95;100.00;96668.47;5056865;28;20083;-45
2023/01/05 07:56:17;;;;;;;0.35;0.30;;;;;;;15.26;100.00;96664.31;5053700;28;20073;-42
2023/01/05 07:58:46;;;;;;;0.98;0.40;;;;;;;14.74;100.00;96638.97;5050910;28;20072;-42
2023/01/05 08:01:16;;;;;;;0.50;0.20;;;;;;;14.72;100.00;96689.53;5063682;28;20088;-45
2023/01/05 08:03:45;;;;;;;;;;;;;;;14.72;100.00;96691.38;5062401;28;20530;-48
2023/01/05 08:06:16;;;;;;;0.40;0.40;;;;;;;14.65;100.00;96683.22;5057445;28;23269;-41
2023/01/05 08:08:46;;;;;;;0.55;0.40;;;;;;;14.59;100.00;96683.91;5054580;28;20060;-45
2023/01/05 08:11:16;;;;;;;0.30;0.30;;;;;;;14.91;100.00;96691.06;5063101;28;20093;-47
2023/01/05 08:16:36;;;;;;;0.63;0.32;;;;;;;14.73;100.00;96698.38;5045320;28;20543;-45
2023/01/05 08:19:04;;;;;;;0.60;0.40;;;;;;;14.67;100.00;96718.41;5060461;28;20079;-48
2023/01/05 08:21:38;;;;;;;0.30;0.30;;;;;;;14.55;100.00;96706.44;5054284;28;20448;-41
2023/01/05 08:24:08;;;;;;;0.30;0.25;;;;;;;15.12;100.00;96701.19;5050581;28;20422;-43
2023/01/05 08:26:36;;;;;;;0.35;0.35;;;;;;;15.08;100.00;96707.00;5053164;28;20096;-41
2023/01/05 08:29:06;;;;;;;0.57;0.38;;;;;;;14.97;100.00;96708.16;5057090;28;20340;-40
2023/01/05 08:31:36;;;;;;;0.50;0.30;;;;;;;14.81;100.00;96703.66;5055383;28;20087;-44
2023/01/05 08:34:05;;;;;;;0.38;0.30;;;;;;;14.95;100.00;96708.31;5056248;28;20076;-43
2023/01/05 08:36:33;;;;;;;1.02;0.30;;;;;;;14.85;100.00;96736.03;5060435;28;20452;-48
2023/01/05 08:39:02;;;;;;;0.68;0.68;;;;;;;14.91;100.00;96735.38;5054092;28;20181;-44
2023/01/05 08:41:34;;;;;;;0.38;0.35;;;;;;;14.86;100.00;96748.31;5050771;28;20081;-43
2023/01/05 08:44:04;;;;;;;0.52;0.50;;;;;;;14.58;100.00;96730.00;5050614;28;20080;-41
2023/01/05 08:46:34;;;;;;;0.30;0.30;;;;;;;14.79;100.00;96747.31;5056222;28;20068;-41
2023/01/05 08:49:04;;;;;;;0.30;0.30;;;;;;;15.33;100.00;96745.84;5066120;28;20080;-43
2023/01/05 08:51:32;;;;;;;1.40;0.50;;;;;;;15.19;100.00;96754.47;5056198;28;20087;-48
2023/01/05 08:54:01;;;;;;;0.88;0.30;;;;;;;15.18;100.00;96768.75;5057189;28;20064;-45
2023/01/05 08:56:29;;;;;;;1.10;0.38;;;;;;;14.88;100.00;96749.81;5065719;28;20075;-47
2023/01/05 08:59:07;;;;;;;0.40;0.38;;;;;;;15.15;100.00;96761.13;5050695;28;20072;-40
2023/01/05 09:01:36;;;;;;;0.45;0.45;;;;;;;14.97;100.00;96798.47;5048734;28;20076;-41
2023/01/05 09:04:05;;;;;;;0.60;0.40;;;;;;;14.94;100.00;96804.09;5048538;28;20556;-51
2023/01/05 09:06:33;;;;;;;0.40;0.40;;;;;;;14.69;100.00;96798.75;5048928;28;20072;-57
2023/01/05 09:09:02;;;;;;;2.78;0.40;;;;;;;14.16;100.00;96799.00;5055288;28;20060;-55
2023/01/05 09:11:30;;;;;;;0.73;0.40;;;;;;;14.03;100.00;96810.03;5048645;28;20084;-56
2023/01/05 09:14:01;;;;;;;0.55;0.47;;;;;;;13.99;100.00;96806.03;5056269;28;20061;-51
2023/01/05 09:16:33;;;;;;;0.40;0.30;;;;;;;13.93;100.00;96801.34;5052958;28;20072;-45
2023/01/05 09:19:22;;;;;;;1.75;0.50;;;;;;;13.94;100.00;96800.38;5061398;28;20072;-47
2023/01/05 09:21:52;;;;;;;0.20;0.20;;;;;;;14.12;100.00;96810.91;5050598;28;20517;-45
2023/01/05 09:24:20;;;;;;;0.30;0.30;;;;;;;13.85;100.00;96818.03;5055421;28;20087;-43
2023/01/05 09:26:49;;;;;;;0.20;0.20;;;;;;;13.84;100.00;96823.50;5048750;28;20073;-43
2023/01/05 09:29:17;;;;;;;0.40;0.30;;;;;;;14.05;100.00;96829.28;5057789;28;20068;-42
2023/01/05 09:31:49;;;;;;;0.40;0.30;;;;;;;14.23;100.00;96832.69;5051259;28;20087;-43
2023/01/05 09:34:17;;;;;;;1.13;0.50;;;;;;;13.90;100.00;96836.97;5055127;28;20095;-42
2023/01/05 09:36:46;;;;;;;1.27;0.40;;;;;;;13.91;100.00;96833.34;5048566;28;20526;-41
2023/01/05 09:39:14;;;;;;;0.68;0.30;;;;;;;13.71;100.00;96845.94;5056744;28;20103;-50
2023/01/05 09:41:46;;;;;;;0.95;0.40;;;;;;;13.43;100.00;96837.28;5056090;28;20080;-46
2023/01/05 09:44:25;;;;;;;0.57;0.40;;;;;;;13.78;100.00;96836.38;5063545;28;20099;-41
2023/01/05 09:46:56;;;;;;;0.70;0.40;;;;;;;13.67;100.00;96847.25;5054636;28;20080;-42
2023/01/05 09:49:25;;;;;;;1.70;0.40;;;;;;;13.86;100.00;96850.69;5057864;28;20498;-45
2023/01/05 09:51:57;;;;;;;0.98;0.32;;;;;;;13.66;100.00;96855.34;5058055;28;20492;-41
2023/01/05 09:54:28;;;;;;;3.92;0.50;;;;;;;13.73;100.00;96859.91;5051961;28;20080;-42
2023/01/05 09:56:57;;;;;;;1.38;0.55;;;;;;;13.53;100.00;96859.22;5051508;28;20077;-45
2023/01/05 09:59:38;;;;;;;1.10;0.30;;;;;;;13.37;100.00;96845.84;5065553;28;20088;-43
2023/01/05 10:02:16;;;;;;;1.50;0.57;;;;;;;13.72;100.00;96868.81;5052770;28;20513;-46
2023/01/05 10:04:45;;;;;;;0.40;0.40;;;;;;;13.54;100.00;96865.34;5062641;28;20091;-46
2023/01/05 10:07:19;;;;;;;1.92;0.55;;;;;;;13.80;100.00;96851.31;5056171;28;20083;-43
2023/01/05 10:09:48;;;;;;;1.65;0.85;;;;;;;13.50;100.00;96875.44;5063024;28;20569;-45
2023/01/05 10:15:09;;;;;;;1.27;0.32;;;;;;;13.74;100.00;96872.16;5053836;28;20080;-44
2023/01/05 10:17:40;;;;;;;1.25;0.50;;;;;;;13.89;100.00;96893.63;5054886;28;20445;-42
2023/01/05 10:20:16;;;;;;;0.93;0.63;;;;;;;13.59;100.00;96875.50;5054268;28;20083;-41
2023/01/05 10:22:53;;;;;;;0.88;0.70;;;;;;;13.70;100.00;96884.06;5060756;28;20576;-48
2023/01/05 10:25:24;;;;;;;1.35;0.60;;;;;;;13.66;100.00;96908.34;5054322;28;20084;-43
2023/01/05 10:27:59;;;;;;;1.10;0.75;;;;;;;13.64;100.00;96883.81;5051753;28;20087;-45
2023/01/05 10:30:43;;;;;;;1.65;0.60;;;;;;;13.37;100.00;96874.97;5054992;28;20088;-41
2023/01/05 10:33:16;;;;;;;6.85;1.20;;;;;;;13.70;100.00;96867.31;5053449;28;20084;-46
2023/01/05 10:36:14;;;;;;;1.55;0.77;;;;;;;13.60;100.00;96885.94;5056495;28;20064;-47
2023/01/05 10:38:58;;;;;;;0.63;0.57;;;;;;;13.60;100.00;96866.56;5058721;28;20485;-42
2023/01/05 10:41:33;;;;;;;1.45;0.75;;;;;;;13.95;100.00;96887.72;5067172;28;20076;-45
2023/01/05 10:44:13;;;;;;;0.98;0.47;;;;;;;13.92;100.00;96885.38;5052216;28;20077;-46
2023/01/05 10:46:47;;;;;;;1.20;0.60;;;;;;;14.05;100.00;96876.19;5054202;28;20072;-44
2023/01/05 10:49:25;;;;;;;0.45;0.40;;;;;;;14.32;100.00;96873.34;5060218;28;20076;-44
2023/01/05 10:51:56;;;;;;;2.03;0.65;;;;;;;14.49;100.00;96875.09;5061667;28;20076;-42
2023/01/05 10:54:32;;;;;;;1.35;0.73;;;;;;;14.55;100.00;96878.97;5056283;28;20084;-42
2023/01/05 10:57:46;;;;;;;2.35;0.82;;;;;;;14.84;100.00;96881.25;5055722;28;20075;-46
2023/01/05 11:00:16;;;;;;;1.50;0.60;;;;;;;14.69;100.00;96886.34;5062907;28;20155;-40
2023/01/05 11:02:50;;;;;;;0.30;0.30;;;;;;;14.72;100.00;96880.69;5054560;28;20057;-43
2023/01/05 11:05:26;;;;;;;0.68;0.68;;;;;;;14.59;100.00;96875.00;5056754;28;20080;-43
2023/01/05 11:07:57;;;;;;;2.55;0.68;;;;;;;15.05;100.00;96872.00;5062088;28;20080;-43
2023/01/05 11:10:29;;;;;;;2.13;0.80;;;;;;;14.80;100.00;96866.63;5064573;28;20076;-38
2023/01/05 11:13:04;;;;;;;0.40;0.40;;;;;;;15.00;100.00;96875.13;5050655;28;20470;-49
2023/01/05 11:15:35;;;;;;;0.30;0.30;;;;;;;14.99;100.00;96872.66;5055026;28;20085;-41
2023/01/05 11:18:03;;;;;;;1.05;0.73;;;;;;;15.36;100.00;96861.59;5058343;28;20079;-41
2023/01/05 11:20:33;;;;;;;1.02;0.52;;;;;;;14.92;100.00;96867.16;5051932;28;20156;-41
2023/01/05 11:23:01;;;;;;;2.15;0.52;;;;;;;14.57;100.00;96870.84;5053796;28;20073;-44
2023/01/05 11:25:31;;;;;;;0.75;0.40;;;;;;;14.98;100.00;96873.66;5056062;28;20536;-43
2023/01/05 11:28:15;;;;;;;0.70;0.43;;;;;;;14.80;100.00;96860.50;5058021;28;20081;-44
2023/01/05 11:30:58;;;;;;;0.35;0.30;;;;;;;14.95;100.00;96865.00;5055910;28;20091;-40
2023/01/05 11:33:28;;;;;;;1.63;0.35;;;;;;;14.88;100.00;96863.16;5053462;28;20077;-44
2023/01/05 11:35:58;;;;;;;0.63;0.30;;;;;;;14.92;100.00;96859.19;5052185;28;20498;-38
2023/01/05 11:38:28;;;;;;;0.22;0.22;;;;;;;14.95;100.00;96859.69;5058203;28;20077;-39
2023/01/05 11:40:58;;;;;;;1.40;0.40;;;;;;;15.31;100.00;96850.63;5063762;28;20090;-41
2023/01/05 11:43:28;;;;;;;0.95;0.43;;;;;;;15.33;100.00;96845.97;5052142;28;20072;-40
2023/01/05 11:45:57;;;;;;;;;;;;;;;15.36;100.00;96846.47;5063214;28;20084;-44
2023/01/05 11:48:27;;;;;;;0.50;0.40;;;;;;;15.71;100.00;96841.84;5055121;28;19966;-43
2023/01/05 11:50:58;;;;;;;0.45;0.30;;;;;;;15.19;100.00;96834.19;5051217;28;20540;-48
2023/01/05 11:53:35;;;;;;;;;;;;;;;15.11;100.00;96832.34;5055897;28;20108;-42
2023/01/05 11:56:06;;;;;;;0.95;0.40;;;;;;;15.32;100.00;96831.88;5055152;28;20053;-40
2023/01/05 11:58:35;;;;;;;1.52;0.60;;;;;;;15.70;100.00;96823.44;5058804;28;20072;-39
2023/01/05 12:01:32;;;;;;;0.85;0.30;;;;;;;15.71;100.00;96823.25;5058110;28;20084;-40
2023/01/05 12:04:04;;;;;;;0.47;0.45;;;;;;;15.34;100.00;96821.88;5049575;28;20076;-42
2023/01/05 12:07:02;;;;;;;0.40;0.20;;;;;;;15.56;100.00;96835.53;5051908;28;20081;-44
2023/01/05 12:09:33;;;;;;;0.80;0.50;;;;;;;15.98;100.00;96832.69;5058907;28;20529;-48
2023/01/05 12:12:18;;;;;;;2.80;0.50;;;;;;;15.73;100.00;96833.75;5051546;28;20491;-47
2023/01/05 12:15:02;;;;;;;1.90;0.43;;;;;;;15.44;100.00;96838.50;5051871;28;20084;-39
2023/01/05 12:17:34;;;;;;;0.55;0.30;;;;;;;15.79;100.00;96838.34;5054035;28;20595;-42
2023/01/05 12:20:19;;;;;;;0.47;0.40;;;;;;;15.81;100.00;96834.53;5055700;28;20137;-40
2023/01/05 12:22:58;;;;;;;0.57;0.30;;;;;;;15.71;100.00;96825.09;5050038;28;20087;-42